createdAt,value
2019-04-11T00:00:53.626Z,16.93
2019-04-11T00:03:23.039Z,16.73
2019-04-11T00:05:52.906Z,15.68
2019-04-11T00:08:22.325Z,16.52
2019-04-11T00:10:51.784Z,15.78
2019-04-11T00:13:25.176Z,15.60
2019-04-11T00:15:52.962Z,15.95
2019-04-11T00:18:22.857Z,16.05
2019-04-11T00:20:52.811Z,17.27
2019-04-11T00:23:22.224Z,16.45
2019-04-11T00:25:51.756Z,15.25
2019-04-11T00:28:21.584Z,15.60
2019-04-11T00:30:51.115Z,15.03
2019-04-11T00:33:20.547Z,15.18
2019-04-11T00:35:50.239Z,14.93
2019-04-11T00:38:19.728Z,15.18
2019-04-11T00:40:49.213Z,15.13
2019-04-11T00:43:30.591Z,14.63
2019-04-11T00:45:49.814Z,15.65
2019-04-11T00:48:19.730Z,15.18
2019-04-11T00:50:49.631Z,14.30
2019-04-11T00:53:20.393Z,14.58
2019-04-11T00:55:49.951Z,13.95
2019-04-11T00:58:19.602Z,14.30
2019-04-11T01:00:49.448Z,14.53
2019-04-11T01:03:20.063Z,13.32
2019-04-11T01:05:49.946Z,13.68
2019-04-11T01:08:19.824Z,14.38
2019-04-11T01:10:49.759Z,13.10
2019-04-11T01:13:20.931Z,13.75
2019-04-11T01:15:58.696Z,13.55
2019-04-11T01:18:28.114Z,12.98
2019-04-11T01:20:57.716Z,13.90
2019-04-11T01:23:27.166Z,12.78
2019-04-11T01:25:56.982Z,12.82
2019-04-11T01:28:26.834Z,12.30
2019-04-11T01:31:01.095Z,12.82
2019-04-11T01:33:31.682Z,13.00
2019-04-11T01:36:01.200Z,12.82
2019-04-11T01:38:32.508Z,12.53
2019-04-11T01:41:02.432Z,13.10
2019-04-11T01:43:32.440Z,12.55
2019-04-11T01:46:02.220Z,12.43
2019-04-11T01:48:39.618Z,12.70
2019-04-11T01:51:09.642Z,13.25
2019-04-11T01:53:40.565Z,12.45
2019-04-11T01:56:10.074Z,12.70
2019-04-11T01:58:40.567Z,12.78
2019-04-11T02:01:20.957Z,11.80
2019-04-11T02:04:12.029Z,11.75
2019-04-11T02:06:42.451Z,12.73
2019-04-11T02:09:13.780Z,11.78
2019-04-11T02:11:43.535Z,12.10
2019-04-11T02:14:16.417Z,12.15
2019-04-11T02:16:45.276Z,12.45
2019-04-11T02:19:14.800Z,12.07
2019-04-11T02:21:44.346Z,11.08
2019-04-11T02:24:25.896Z,12.18
2019-04-11T02:27:11.916Z,12.07
2019-04-11T02:29:42.385Z,11.55
2019-04-11T02:32:12.700Z,11.20
2019-04-11T02:34:43.758Z,11.30
2019-04-11T02:37:15.227Z,11.83
2019-04-11T02:39:44.736Z,11.03
2019-04-11T02:42:14.884Z,11.80
2019-04-11T02:44:59.294Z,11.50
2019-04-11T02:47:22.033Z,10.78
2019-04-11T02:49:47.701Z,11.00
2019-04-11T02:52:17.727Z,10.55
2019-04-11T02:54:49.301Z,11.68
2019-04-11T02:57:18.801Z,11.48
2019-04-11T02:59:49.002Z,10.53
2019-04-11T03:02:19.510Z,10.55
2019-04-11T03:04:50.939Z,10.53
2019-04-11T03:07:20.614Z,9.90
2019-04-11T03:09:51.034Z,10.72
2019-04-11T03:12:21.687Z,10.38
2019-04-11T03:15:09.220Z,10.72
2019-04-11T03:17:28.674Z,10.35
2019-04-11T03:20:08.350Z,10.18
2019-04-11T03:22:26.815Z,10.03
2019-04-11T03:24:58.397Z,10.20
2019-04-11T03:27:30.387Z,10.35
2019-04-11T03:30:00.109Z,8.93
2019-04-11T03:33:08.009Z,10.10
2019-04-11T03:37:53.918Z,9.73
2019-04-11T03:40:22.569Z,9.55
2019-04-11T03:42:52.397Z,10.20
2019-04-11T03:45:30.869Z,9.63
2019-04-11T03:47:56.122Z,9.80
2019-04-11T03:50:15.331Z,9.70
2019-04-11T03:52:40.793Z,9.05
2019-04-11T03:55:11.144Z,10.10
2019-04-11T03:57:41.732Z,9.58
2019-04-11T04:00:13.093Z,9.70
2019-04-11T04:02:44.402Z,9.30
2019-04-11T04:05:15.306Z,9.28
2019-04-11T04:07:46.210Z,8.75
2019-04-11T04:10:18.424Z,9.03
2019-04-11T04:12:48.092Z,9.43
2019-04-11T04:15:54.069Z,8.60
2019-04-11T04:18:31.766Z,8.55
2019-04-11T04:21:33.248Z,8.23
2019-04-11T04:24:25.268Z,8.43
2019-04-11T04:26:56.776Z,8.30
2019-04-11T04:29:28.816Z,9.13
2019-04-11T04:31:59.343Z,9.18
2019-04-11T04:34:28.948Z,8.60
2019-04-11T04:36:59.970Z,8.95
2019-04-11T04:39:31.242Z,9.75
2019-04-11T04:42:08.222Z,9.33
2019-04-11T04:44:33.314Z,10.32
2019-04-11T04:47:15.627Z,11.12
2019-04-11T04:49:34.933Z,11.68
2019-04-11T04:52:06.090Z,12.45
2019-04-11T04:54:36.595Z,13.13
2019-04-11T04:57:08.709Z,16.23
2019-04-11T04:59:39.982Z,18.60
2019-04-11T05:02:10.956Z,20.75
2019-04-11T05:04:40.485Z,21.50
2019-04-11T05:07:11.626Z,22.32
2019-04-11T05:09:42.658Z,23.42
2019-04-11T05:12:12.143Z,23.42
2019-04-11T05:14:41.600Z,21.60
2019-04-11T05:17:11.092Z,20.17
2019-04-11T05:19:40.527Z,22.67
2019-04-11T05:22:10.555Z,21.50
2019-04-11T05:24:41.047Z,21.00
2019-04-11T05:27:10.555Z,20.82
2019-04-11T05:29:40.051Z,20.65
2019-04-11T05:32:09.517Z,20.92
2019-04-11T05:34:39.347Z,20.75
2019-04-11T05:37:09.068Z,19.17
2019-04-11T05:39:38.547Z,20.05
2019-04-11T05:42:09.194Z,20.77
2019-04-11T05:44:40.374Z,19.77
2019-04-11T05:47:14.553Z,18.67
2019-04-11T05:49:55.003Z,19.48
2019-04-11T05:52:27.398Z,18.92
2019-04-11T05:54:58.529Z,20.70
2019-04-11T05:57:35.191Z,22.02
2019-04-11T05:59:59.311Z,21.82
2019-04-11T06:02:33.394Z,23.52
2019-04-11T06:05:17.478Z,22.02
2019-04-11T06:08:06.405Z,21.42
2019-04-11T06:10:57.827Z,22.42
2019-04-11T06:13:36.433Z,21.95
2019-04-11T06:16:06.396Z,20.77
2019-04-11T06:19:04.079Z,21.48
2019-04-11T06:21:37.159Z,19.82
2019-04-11T06:24:40.629Z,20.70
2019-04-11T06:27:22.777Z,21.60
2019-04-11T06:30:06.063Z,20.82
2019-04-11T06:32:54.226Z,21.20
2019-04-11T06:35:30.465Z,19.98
2019-04-11T06:38:18.574Z,20.37
2019-04-11T06:40:55.412Z,19.85
2019-04-11T06:43:42.580Z,18.67
2019-04-11T06:46:48.577Z,19.85
2019-04-11T06:49:42.582Z,19.15
2019-04-11T06:52:12.768Z,18.62
2019-04-11T06:54:59.499Z,18.92
2019-04-11T06:57:30.019Z,18.90
2019-04-11T06:59:59.538Z,19.20
2019-04-11T07:02:29.975Z,18.77
2019-04-11T07:05:02.921Z,19.00
2019-04-11T07:07:35.662Z,18.87
2019-04-11T07:10:07.024Z,18.37
2019-04-11T07:12:42.828Z,17.75
2019-04-11T07:15:20.968Z,17.90
2019-04-11T07:18:07.854Z,18.10
2019-04-11T07:21:02.938Z,17.75
2019-04-11T07:23:51.162Z,18.45
2019-04-11T07:26:27.348Z,17.52
2019-04-11T07:29:27.493Z,17.17
2019-04-11T07:32:17.867Z,18.07
2019-04-11T07:35:04.884Z,18.40
2019-04-11T07:37:36.680Z,17.00
2019-04-11T07:40:27.171Z,17.23
2019-04-11T07:43:19.738Z,18.07
2019-04-11T07:46:11.147Z,17.85
2019-04-11T07:48:42.621Z,16.00
2019-04-11T07:51:40.749Z,16.87
2019-04-11T07:54:15.820Z,16.87
2019-04-11T07:57:08.366Z,16.82
2019-04-11T07:59:50.955Z,16.52
2019-04-11T08:02:37.835Z,16.67
2019-04-11T08:05:44.895Z,16.45
2019-04-11T08:08:34.441Z,16.17
2019-04-11T08:11:15.989Z,16.75
2019-04-11T08:13:54.605Z,17.23
2019-04-11T08:16:55.319Z,15.70
2019-04-11T08:19:42.859Z,15.93
2019-04-11T08:22:30.607Z,15.48
2019-04-11T08:25:13.224Z,15.40
2019-04-11T08:27:54.872Z,15.63
2019-04-11T08:30:19.053Z,15.20
2019-04-11T08:32:51.948Z,15.10
2019-04-11T08:35:51.987Z,14.70
2019-04-11T08:38:32.186Z,15.13
2019-04-11T08:41:23.446Z,15.05
2019-04-11T08:43:53.242Z,16.05
2019-04-11T08:46:26.812Z,15.72
2019-04-11T08:48:59.419Z,15.35
2019-04-11T08:51:29.428Z,15.83
2019-04-11T08:54:19.439Z,15.13
2019-04-11T08:56:49.430Z,15.03
2019-04-11T08:59:47.062Z,14.38
2019-04-11T09:02:20.666Z,14.73
2019-04-11T09:05:19.851Z,14.78
2019-04-11T09:07:56.150Z,13.85
2019-04-11T09:10:42.792Z,14.95
2019-04-11T09:13:31.333Z,14.07
2019-04-11T09:16:18.426Z,14.30
2019-04-11T09:18:47.894Z,13.45
2019-04-11T09:21:34.180Z,13.13
2019-04-11T09:24:06.209Z,14.15
2019-04-11T09:27:06.634Z,13.85
2019-04-11T09:29:39.931Z,13.43
2019-04-11T09:32:27.102Z,13.55
2019-04-11T09:35:06.093Z,13.10
2019-04-11T09:37:37.903Z,12.93
2019-04-11T09:40:27.940Z,12.90
2019-04-11T09:43:16.334Z,12.70
2019-04-11T09:46:08.196Z,12.37
2019-04-11T09:48:48.494Z,12.05
2019-04-11T09:51:31.724Z,11.78
2019-04-11T09:54:05.690Z,11.97
2019-04-11T09:56:54.065Z,11.45
2019-04-11T09:59:29.466Z,12.20
2019-04-11T10:02:08.004Z,11.35
2019-04-11T10:04:37.571Z,11.80
2019-04-11T10:07:19.827Z,11.75
2019-04-11T10:10:14.900Z,11.78
2019-04-11T10:13:02.673Z,11.22
2019-04-11T10:15:54.138Z,11.45
2019-04-11T10:18:42.476Z,13.65
2019-04-11T10:21:13.016Z,11.38
2019-04-11T10:24:15.891Z,10.40
2019-04-11T10:26:48.139Z,11.73
2019-04-11T10:29:36.492Z,13.50
2019-04-11T10:32:06.706Z,13.08
2019-04-11T10:34:54.286Z,14.50
2019-04-11T10:37:23.720Z,14.75
2019-04-11T10:40:01.858Z,14.70
2019-04-11T10:42:32.838Z,15.40
2019-04-11T10:45:24.871Z,15.72
2019-04-11T10:47:57.654Z,16.62
2019-04-11T10:50:52.778Z,19.52
2019-04-11T10:53:24.937Z,18.73
2019-04-11T10:56:10.494Z,18.75
2019-04-11T10:58:44.793Z,18.50
2019-04-11T11:01:31.740Z,18.35
2019-04-11T11:04:23.334Z,19.10
2019-04-11T11:06:55.957Z,19.60
2019-04-11T11:09:47.364Z,19.62
2019-04-11T11:12:32.876Z,19.57
2019-04-11T11:15:11.487Z,18.82
2019-04-11T11:18:43.924Z,19.35
2019-04-11T11:20:53.124Z,19.87
2019-04-11T11:23:37.323Z,20.37
2019-04-11T11:26:26.567Z,19.25
2019-04-11T11:29:15.801Z,19.85
2019-04-11T11:32:07.160Z,18.60
2019-04-11T11:35:05.325Z,18.23
2019-04-11T11:37:47.173Z,17.87
2019-04-11T11:40:38.534Z,17.85
2019-04-11T11:43:30.930Z,18.30
2019-04-11T11:46:26.690Z,17.77
2019-04-11T11:49:02.911Z,16.80
2019-04-11T11:51:54.024Z,17.95
2019-04-11T11:54:35.663Z,17.30
2019-04-11T11:57:15.629Z,17.75
2019-04-11T11:59:50.929Z,16.50
2019-04-11T12:02:42.763Z,16.85
2019-04-11T12:05:27.174Z,17.45
2019-04-11T12:08:11.587Z,17.12
2019-04-11T12:10:43.888Z,16.30
2019-04-11T12:13:41.377Z,16.57
2019-04-11T12:16:21.359Z,16.35
2019-04-11T12:19:02.504Z,16.12
2019-04-11T12:21:34.575Z,16.12
2019-04-11T12:24:20.924Z,15.75
2019-04-11T12:27:21.018Z,15.63
2019-04-11T12:30:07.899Z,15.35
2019-04-11T12:32:40.976Z,15.13
2019-04-11T12:35:36.005Z,14.70
2019-04-11T12:38:11.172Z,15.32
2019-04-11T12:41:08.198Z,15.60
2019-04-11T12:43:56.173Z,15.00
2019-04-11T12:46:43.164Z,15.05
2019-04-11T12:49:28.753Z,16.30
2019-04-11T12:52:15.634Z,14.63
2019-04-11T12:54:45.537Z,14.95
2019-04-11T12:57:32.292Z,14.18
2019-04-11T13:00:11.258Z,15.68
2019-04-11T13:03:11.502Z,15.75
2019-04-11T13:05:41.498Z,13.70
2019-04-11T13:08:28.288Z,13.65
2019-04-11T13:10:57.856Z,14.15
2019-04-11T13:13:42.844Z,14.23
2019-04-11T13:16:14.293Z,13.48
2019-04-11T13:19:02.580Z,12.75
2019-04-11T13:21:48.272Z,13.30
2019-04-11T13:24:54.773Z,13.95
2019-04-11T13:27:34.269Z,14.25
2019-04-11T13:30:21.095Z,13.65
2019-04-11T13:32:55.984Z,13.95
2019-04-11T13:35:42.625Z,13.30
2019-04-11T13:38:24.024Z,12.90
2019-04-11T13:41:20.228Z,13.03
2019-04-11T13:44:14.285Z,14.73
2019-04-11T13:47:02.576Z,16.55
2019-04-11T13:49:41.107Z,17.85
2019-04-11T13:52:29.380Z,19.25
2019-04-11T13:55:02.708Z,18.32
2019-04-11T13:57:56.713Z,23.05
2019-04-11T14:00:44.143Z,22.62
2019-04-11T14:03:44.594Z,20.95
2019-04-11T14:06:27.770Z,19.98
2019-04-11T14:09:24.845Z,19.23
2019-04-11T14:11:55.652Z,19.55
2019-04-11T14:14:29.774Z,19.95
2019-04-11T14:17:04.807Z,19.87
2019-04-11T14:19:50.728Z,18.87
2019-04-11T14:22:25.240Z,18.45
2019-04-11T14:25:03.442Z,18.37
2019-04-11T14:27:32.882Z,18.32
2019-04-11T14:30:18.631Z,17.35
2019-04-11T14:32:48.694Z,17.85
2019-04-11T14:35:35.397Z,17.15
2019-04-11T14:38:12.994Z,18.27
2019-04-11T14:41:01.502Z,17.90
2019-04-11T14:43:26.767Z,17.12
2019-04-11T14:46:24.081Z,17.42
2019-04-11T14:48:59.317Z,16.35
2019-04-11T14:51:58.444Z,15.78
2019-04-11T14:54:33.690Z,15.45
2019-04-11T14:57:07.307Z,16.05
2019-04-11T14:59:54.191Z,16.87
2019-04-11T15:02:40.256Z,15.72
2019-04-11T15:05:16.702Z,15.30
2019-04-11T15:07:46.781Z,14.85
2019-04-11T15:10:40.973Z,15.05
2019-04-11T15:13:12.050Z,15.48
2019-04-11T15:16:06.593Z,14.18
2019-04-11T15:18:39.303Z,12.93
2019-04-11T15:21:42.793Z,12.10
2019-04-11T15:24:12.814Z,11.33
2019-04-11T15:26:59.512Z,12.03
2019-04-11T15:29:31.722Z,11.18
2019-04-11T15:32:22.121Z,11.08
2019-04-11T15:35:03.737Z,10.85
2019-04-11T15:37:54.996Z,10.93
2019-04-11T15:40:33.352Z,10.58
2019-04-11T15:43:30.736Z,11.30
2019-04-11T15:46:17.077Z,11.63
2019-04-11T15:49:05.815Z,11.78
2019-04-11T15:51:57.096Z,12.18
2019-04-11T15:54:45.357Z,12.80
2019-04-11T15:57:33.649Z,17.07
2019-04-11T16:00:28.157Z,16.07
2019-04-11T16:03:14.459Z,13.93
2019-04-11T16:06:05.867Z,13.35
2019-04-11T16:08:52.899Z,13.85
2019-04-11T16:11:53.280Z,13.20
2019-04-11T16:14:37.222Z,13.40
2019-04-11T16:17:28.265Z,12.53
2019-04-11T16:20:03.243Z,11.90
2019-04-11T16:23:00.280Z,12.65
2019-04-11T16:25:29.876Z,12.07
2019-04-11T16:28:16.564Z,11.53
2019-04-11T16:30:56.774Z,11.80
2019-04-11T16:33:51.095Z,11.93
2019-04-11T16:36:37.992Z,11.78
2019-04-11T16:39:33.456Z,11.90
2019-04-11T16:42:04.967Z,11.48
2019-04-11T16:45:02.416Z,12.15
2019-04-11T16:47:53.749Z,11.90
2019-04-11T16:50:23.051Z,11.57
2019-04-11T16:52:52.459Z,10.88
2019-04-11T16:55:21.901Z,10.78
2019-04-11T16:57:51.301Z,11.53
2019-04-11T17:00:21.271Z,11.12
2019-04-11T17:02:54.713Z,10.25
2019-04-11T17:05:24.013Z,11.22
2019-04-11T17:08:20.899Z,11.18
2019-04-11T17:11:19.034Z,10.45
2019-04-11T17:13:48.789Z,10.48
2019-04-11T17:16:19.735Z,9.88
2019-04-11T17:18:49.161Z,10.38
2019-04-11T17:21:18.639Z,10.03
2019-04-11T17:23:48.069Z,10.53
2019-04-11T17:26:17.508Z,9.88
2019-04-11T17:28:46.998Z,9.78
2019-04-11T17:31:16.407Z,9.58
2019-04-11T17:33:45.847Z,9.90
2019-04-11T17:36:15.340Z,9.65
2019-04-11T17:38:45.005Z,9.85
2019-04-11T17:41:14.454Z,9.60
2019-04-11T17:43:46.721Z,9.60
2019-04-11T17:46:15.544Z,8.93
2019-04-11T17:48:44.944Z,9.05
2019-04-11T17:51:14.409Z,9.50
2019-04-11T17:53:43.821Z,8.75
2019-04-11T17:56:13.290Z,8.90
2019-04-11T17:58:42.713Z,10.32
2019-04-11T18:01:12.849Z,9.55
2019-04-11T18:03:42.710Z,9.03
2019-04-11T18:06:12.396Z,9.23
2019-04-11T18:08:41.960Z,9.43
2019-04-11T18:11:11.355Z,8.60
2019-04-11T18:13:41.357Z,9.03
2019-04-11T18:16:10.950Z,9.13
2019-04-11T18:18:40.372Z,8.35
2019-04-11T18:21:09.824Z,8.83
2019-04-11T18:23:39.247Z,9.00
2019-04-11T18:26:08.669Z,9.40
2019-04-11T18:28:38.099Z,8.90
2019-04-11T18:31:07.814Z,8.13
2019-04-11T18:33:37.493Z,8.33
2019-04-11T18:36:06.938Z,8.08
2019-04-11T18:38:36.362Z,8.30
2019-04-11T18:41:05.780Z,8.23
2019-04-11T18:43:35.217Z,8.10
2019-04-11T18:46:05.423Z,8.50
2019-04-11T18:48:34.851Z,8.38
2019-04-11T18:51:04.269Z,8.08
2019-04-11T18:53:33.689Z,8.08
2019-04-11T18:56:03.215Z,8.33
2019-04-11T18:58:34.465Z,8.28
2019-04-11T19:01:08.823Z,8.25
2019-04-11T19:03:36.643Z,8.08
2019-04-11T19:06:06.255Z,8.15
2019-04-11T19:08:35.782Z,7.53
2019-04-11T19:11:05.296Z,8.18
2019-04-11T19:13:34.722Z,8.23
2019-04-11T19:16:04.251Z,8.60
2019-04-11T19:18:33.675Z,8.18
2019-04-11T19:21:03.154Z,8.13
2019-04-11T19:23:32.570Z,8.75
2019-04-11T19:26:01.999Z,8.55
2019-04-11T19:28:31.416Z,8.70
2019-04-11T19:31:00.850Z,8.85
2019-04-11T19:33:34.091Z,8.65
2019-04-11T19:36:01.456Z,8.58
2019-04-11T19:38:33.140Z,9.15
2019-04-11T19:41:02.605Z,9.08
2019-04-11T19:43:32.079Z,9.20
2019-04-11T19:46:01.626Z,8.83
2019-04-11T19:48:31.065Z,8.75
2019-04-11T19:51:00.508Z,8.15
2019-04-11T19:53:32.827Z,8.88
2019-04-11T19:56:10.265Z,9.30
2019-04-11T19:58:39.703Z,9.15
2019-04-11T20:01:09.140Z,8.73
2019-04-11T20:03:38.571Z,8.28
2019-04-11T20:06:08.125Z,9.40
2019-04-11T20:08:37.569Z,9.45
2019-04-11T20:11:07.026Z,8.75
2019-04-11T20:13:36.477Z,8.80
2019-04-11T20:16:05.965Z,8.90
2019-04-11T20:18:35.414Z,8.35
2019-04-11T20:21:07.290Z,8.38
2019-04-11T20:23:36.027Z,8.95
2019-04-11T20:26:05.525Z,8.63
2019-04-11T20:28:34.974Z,8.58
2019-04-11T20:31:04.428Z,8.78
2019-04-11T20:33:34.802Z,8.78
2019-04-11T20:36:08.184Z,8.20
2019-04-11T20:38:38.077Z,8.25
2019-04-11T20:41:07.488Z,7.72
2019-04-11T20:43:37.019Z,8.20
2019-04-11T20:46:06.551Z,8.53
2019-04-11T20:48:36.007Z,8.20
2019-04-11T20:51:05.453Z,8.18
2019-04-11T20:53:37.453Z,7.37
2019-04-11T20:56:09.499Z,7.90
2019-04-11T20:58:39.740Z,7.50
2019-04-11T21:01:08.490Z,7.67
2019-04-11T21:03:37.948Z,7.83
2019-04-11T21:06:07.398Z,7.58
2019-04-11T21:08:36.887Z,7.58
2019-04-11T21:11:06.291Z,7.65
2019-04-11T21:13:38.143Z,7.53
2019-04-11T21:16:06.887Z,7.42
2019-04-11T21:18:36.352Z,7.65
2019-04-11T21:21:05.764Z,7.42
2019-04-11T21:23:35.202Z,8.18
2019-04-11T21:26:04.625Z,7.60
2019-04-11T21:28:34.073Z,7.50
2019-04-11T21:31:03.489Z,7.92
2019-04-11T21:33:34.980Z,6.50
2019-04-11T21:36:04.171Z,7.62
2019-04-11T21:38:33.595Z,7.30
2019-04-11T21:41:05.859Z,7.37
2019-04-11T21:43:36.306Z,7.08
2019-04-11T21:46:06.863Z,7.75
2019-04-11T21:48:36.632Z,7.37
2019-04-11T21:51:06.139Z,7.15
2019-04-11T21:53:36.654Z,6.67
2019-04-11T21:56:06.471Z,6.80
2019-04-11T21:58:35.920Z,6.87
2019-04-11T22:01:09.210Z,6.42
2019-04-11T22:03:38.671Z,7.25
2019-04-11T22:06:08.097Z,6.20
2019-04-11T22:08:37.858Z,6.62
2019-04-11T22:11:09.866Z,6.97
2019-04-11T22:13:40.406Z,6.65
2019-04-11T22:16:13.214Z,6.33
2019-04-11T22:18:40.817Z,7.00
2019-04-11T22:21:10.256Z,6.80
2019-04-11T22:23:48.606Z,6.65
2019-04-11T22:26:10.884Z,7.03
2019-04-11T22:28:40.330Z,6.95
2019-04-11T22:31:09.810Z,7.08
2019-04-11T22:34:01.090Z,6.92
2019-04-11T22:36:30.849Z,6.92
2019-04-11T22:39:01.036Z,6.45
2019-04-11T22:41:31.024Z,6.58
2019-04-11T22:44:00.449Z,6.78
2019-04-11T22:46:29.893Z,6.42
2019-04-11T22:48:59.327Z,6.45
2019-04-11T22:51:28.820Z,6.97
2019-04-11T22:54:00.609Z,6.47
2019-04-11T22:56:29.424Z,6.20
2019-04-11T22:58:58.865Z,6.50
2019-04-11T23:01:28.404Z,5.90
2019-04-11T23:03:59.269Z,6.15
2019-04-11T23:06:28.750Z,6.05
2019-04-11T23:08:58.215Z,6.45
2019-04-11T23:11:27.648Z,5.85
2019-04-11T23:13:57.074Z,6.03
2019-04-11T23:16:26.527Z,5.85
2019-04-11T23:18:55.975Z,6.05
2019-04-11T23:21:25.417Z,6.05
2019-04-11T23:23:54.917Z,6.20
2019-04-11T23:26:24.352Z,6.10
2019-04-11T23:28:53.800Z,6.00
2019-04-11T23:31:23.227Z,6.10
2019-04-11T23:33:52.740Z,6.28
2019-04-11T23:36:22.178Z,6.40
2019-04-11T23:38:52.669Z,5.95
2019-04-11T23:41:22.940Z,5.87
2019-04-11T23:43:52.372Z,5.95
2019-04-11T23:46:22.116Z,6.47
2019-04-11T23:48:54.545Z,6.40
2019-04-11T23:51:25.395Z,5.90
2019-04-11T23:53:53.950Z,5.42
2019-04-11T23:56:23.378Z,5.58
2019-04-11T23:58:52.820Z,5.65
